createdAt,value
2018-06-11T00:01:22.552Z,70.56
2018-06-11T00:03:51.433Z,70.79
2018-06-11T00:06:20.961Z,71.08
2018-06-11T00:08:50.501Z,71.49
2018-06-11T00:11:19.761Z,72.40
2018-06-11T00:13:48.561Z,71.77
2018-06-11T00:16:18.030Z,72.50
2018-06-11T00:18:47.811Z,73.37
2018-06-11T00:21:16.706Z,72.91
2018-06-11T00:23:45.547Z,73.69
2018-06-11T00:26:15.045Z,72.89
2018-06-11T00:28:43.982Z,74.12
2018-06-11T00:31:13.355Z,74.85
2018-06-11T00:33:42.995Z,74.45
2018-06-11T00:36:12.012Z,75.42
2018-06-11T00:38:41.257Z,75.66
2018-06-11T00:41:10.405Z,76.29
2018-06-11T00:43:40.857Z,76.77
2018-06-11T00:46:10.425Z,77.47
2018-06-11T00:48:40.355Z,77.70
2018-06-11T00:51:10.419Z,77.12
2018-06-11T00:53:39.525Z,77.46
2018-06-11T00:56:23.615Z,77.90
2018-06-11T00:58:54.121Z,77.72
2018-06-11T01:01:23.236Z,77.49
2018-06-11T01:03:52.139Z,77.99
2018-06-11T01:06:21.784Z,78.54
2018-06-11T01:08:51.360Z,76.99
2018-06-11T01:11:20.246Z,77.70
2018-06-11T01:13:50.191Z,77.16
2018-06-11T01:16:19.628Z,77.87
2018-06-11T01:18:49.274Z,77.48
2018-06-11T01:21:18.079Z,77.77
2018-06-11T01:23:47.769Z,77.28
2018-06-11T01:26:17.531Z,77.46
2018-06-11T01:28:46.507Z,77.09
2018-06-11T01:31:16.665Z,77.58
2018-06-11T01:33:45.988Z,77.65
2018-06-11T01:36:15.160Z,76.46
2018-06-11T01:38:44.057Z,77.38
2018-06-11T01:41:13.006Z,76.46
2018-06-11T01:43:44.091Z,76.77
2018-06-11T01:46:13.805Z,77.49
2018-06-11T01:48:43.299Z,76.56
2018-06-11T01:51:12.511Z,76.85
2018-06-11T01:53:41.492Z,77.66
2018-06-11T01:56:11.644Z,77.31
2018-06-11T01:58:41.223Z,76.86
2018-06-11T02:01:10.937Z,76.94
2018-06-11T02:03:40.028Z,77.27
2018-06-11T02:06:09.795Z,76.89
2018-06-11T02:08:40.070Z,76.63
2018-06-11T02:11:09.702Z,77.62
2018-06-11T02:13:38.561Z,77.03
2018-06-11T02:16:08.564Z,76.70
2018-06-11T02:18:38.474Z,77.41
2018-06-11T02:21:07.385Z,77.24
2018-06-11T02:23:37.054Z,77.42
2018-06-11T02:26:05.886Z,77.30
2018-06-11T02:28:34.796Z,77.59
2018-06-11T02:31:04.361Z,77.25
2018-06-11T02:33:33.212Z,77.37
2018-06-11T02:36:02.060Z,76.55
2018-06-11T02:38:30.954Z,77.49
2018-06-11T02:40:59.854Z,77.48
2018-06-11T02:43:29.719Z,77.87
2018-06-11T02:45:59.483Z,77.87
2018-06-11T02:48:29.014Z,78.67
2018-06-11T02:50:58.021Z,77.62
2018-06-11T02:53:26.841Z,77.67
2018-06-11T02:55:55.901Z,77.80
2018-06-11T02:58:24.894Z,77.43
2018-06-11T03:00:54.909Z,77.49
2018-06-11T03:03:23.830Z,77.05
2018-06-11T03:05:53.611Z,77.79
2018-06-11T03:08:23.220Z,77.98
2018-06-11T03:10:52.035Z,77.54
2018-06-11T03:13:20.935Z,77.12
2018-06-11T03:15:50.566Z,77.80
2018-06-11T03:18:20.232Z,77.70
2018-06-11T03:20:49.273Z,77.49
2018-06-11T03:23:18.167Z,77.79
2018-06-11T03:25:47.412Z,77.58
2018-06-11T03:28:16.250Z,77.65
2018-06-11T03:30:45.894Z,78.31
2018-06-11T03:33:14.678Z,78.03
2018-06-11T03:35:43.531Z,77.67
2018-06-11T03:38:12.402Z,78.02
2018-06-11T03:40:41.400Z,77.95
2018-06-11T03:43:11.231Z,77.56
2018-06-11T03:45:40.283Z,77.83
2018-06-11T03:48:10.142Z,78.21
2018-06-11T03:50:39.311Z,77.65
2018-06-11T03:53:08.314Z,78.51
2018-06-11T03:55:37.316Z,77.75
2018-06-11T03:58:06.235Z,78.45
2018-06-11T04:00:35.918Z,78.45
2018-06-11T04:03:04.849Z,78.65
2018-06-11T04:05:34.383Z,78.29
2018-06-11T04:08:03.767Z,78.23
2018-06-11T04:10:32.582Z,78.46
2018-06-11T04:13:01.682Z,77.53
2018-06-11T04:15:31.463Z,77.79
2018-06-11T04:18:01.027Z,78.33
2018-06-11T04:20:29.787Z,77.73
2018-06-11T04:22:58.638Z,78.12
2018-06-11T04:25:27.416Z,77.74
2018-06-11T04:27:56.239Z,78.73
2018-06-11T04:30:25.879Z,77.83
2018-06-11T04:32:54.718Z,77.21
2018-06-11T04:35:23.616Z,78.52
2018-06-11T04:37:52.637Z,78.45
2018-06-11T04:40:22.656Z,77.20
2018-06-11T04:42:52.150Z,76.50
2018-06-11T04:45:21.036Z,76.97
2018-06-11T04:47:49.805Z,76.69
2018-06-11T04:50:18.574Z,77.23
2018-06-11T04:52:47.311Z,76.85
2018-06-11T04:55:16.333Z,77.47
2018-06-11T04:57:45.108Z,76.83
2018-06-11T05:00:15.506Z,77.56
2018-06-11T05:02:44.295Z,76.37
2018-06-11T05:05:14.326Z,76.53
2018-06-11T05:07:43.784Z,76.87
2018-06-11T05:10:12.576Z,75.10
2018-06-11T05:12:41.487Z,75.61
2018-06-11T05:15:11.815Z,74.53
2018-06-11T05:17:41.831Z,74.67
2018-06-11T05:20:10.820Z,73.60
2018-06-11T05:22:39.792Z,73.71
2018-06-11T05:25:09.642Z,73.66
2018-06-11T05:27:38.510Z,73.95
2018-06-11T05:30:08.027Z,74.05
2018-06-11T05:32:36.813Z,73.60
2018-06-11T05:35:05.654Z,73.72
2018-06-11T05:37:35.193Z,73.97
2018-06-11T05:40:04.087Z,73.60
2018-06-11T05:42:33.861Z,73.41
2018-06-11T05:45:02.707Z,73.31
2018-06-11T05:47:32.311Z,72.64
2018-06-11T05:50:01.148Z,72.33
2018-06-11T05:52:29.946Z,72.46
2018-06-11T05:54:58.805Z,71.63
2018-06-11T05:57:27.649Z,70.70
2018-06-11T05:59:57.423Z,70.03
2018-06-11T06:02:26.199Z,68.79
2018-06-11T06:04:56.247Z,67.86
2018-06-11T06:07:25.706Z,68.00
2018-06-11T06:09:54.582Z,67.55
2018-06-11T06:12:23.470Z,67.06
2018-06-11T06:14:53.078Z,66.39
2018-06-11T06:17:22.497Z,64.84
2018-06-11T06:19:51.335Z,65.13
2018-06-11T06:22:20.112Z,65.74
2018-06-11T06:24:48.887Z,64.49
2018-06-11T06:27:17.660Z,63.54
2018-06-11T06:29:47.486Z,64.92
2018-06-11T06:32:17.462Z,64.24
2018-06-11T06:34:46.368Z,63.54
2018-06-11T06:37:15.894Z,63.53
2018-06-11T06:39:44.651Z,64.64
2018-06-11T06:42:14.298Z,64.13
2018-06-11T06:44:44.016Z,64.19
2018-06-11T06:47:12.786Z,62.36
2018-06-11T06:49:41.559Z,61.83
2018-06-11T06:52:10.768Z,62.92
2018-06-11T06:54:39.840Z,62.77
2018-06-11T06:57:09.404Z,62.12
2018-06-11T06:59:39.369Z,61.51
2018-06-11T07:02:08.451Z,61.51
2018-06-11T07:04:37.462Z,60.02
2018-06-11T07:07:06.974Z,60.16
2018-06-11T07:09:35.785Z,60.55
2018-06-11T07:12:04.800Z,60.18
2018-06-11T07:14:33.810Z,60.72
2018-06-11T07:17:03.084Z,60.74
2018-06-11T07:19:31.839Z,60.65
2018-06-11T07:22:00.790Z,59.61
2018-06-11T07:24:29.603Z,57.33
2018-06-11T07:26:58.487Z,57.10
2018-06-11T07:29:27.623Z,57.15
2018-06-11T07:31:57.119Z,58.27
2018-06-11T07:34:26.652Z,58.92
2018-06-11T07:36:55.552Z,57.90
2018-06-11T07:39:24.395Z,58.10
2018-06-11T07:41:53.235Z,58.19
2018-06-11T07:44:22.726Z,56.49
2018-06-11T07:46:51.495Z,55.76
2018-06-11T07:49:20.277Z,52.67
2018-06-11T07:51:49.090Z,52.57
2018-06-11T07:54:17.862Z,52.15
2018-06-11T07:56:46.888Z,52.69
2018-06-11T07:59:17.221Z,52.36
2018-06-11T08:01:46.025Z,52.49
2018-06-11T08:04:14.798Z,51.99
2018-06-11T08:06:44.270Z,52.46
2018-06-11T08:09:13.415Z,52.39
2018-06-11T08:11:42.212Z,52.86
2018-06-11T08:14:11.206Z,52.88
2018-06-11T08:16:41.106Z,52.98
2018-06-11T08:19:11.068Z,52.85
2018-06-11T08:21:39.926Z,52.37
2018-06-11T08:24:08.726Z,52.08
2018-06-11T08:26:37.592Z,52.34
2018-06-11T08:29:06.905Z,52.80
2018-06-11T08:31:36.314Z,52.26
2018-06-11T08:34:05.252Z,52.40
2018-06-11T08:36:34.026Z,53.28
2018-06-11T08:39:03.223Z,53.48
2018-06-11T08:41:31.998Z,53.57
2018-06-11T08:44:01.374Z,53.58
2018-06-11T08:46:30.133Z,53.15
2018-06-11T08:48:58.937Z,53.88
2018-06-11T08:51:27.719Z,53.18
2018-06-11T08:53:56.478Z,52.91
2018-06-11T08:56:25.614Z,53.40
2018-06-11T08:58:55.542Z,53.41
2018-06-11T09:01:24.538Z,53.93
2018-06-11T09:03:53.391Z,52.07
2018-06-11T09:06:23.005Z,51.60
2018-06-11T09:08:53.003Z,51.61
2018-06-11T09:11:22.656Z,50.67
2018-06-11T09:13:51.410Z,49.61
2018-06-11T09:16:21.142Z,48.81
2018-06-11T09:18:50.590Z,47.87
2018-06-11T09:21:19.338Z,48.60
2018-06-11T09:23:48.093Z,48.68
2018-06-11T09:26:16.926Z,48.30
2018-06-11T09:28:46.511Z,47.60
2018-06-11T09:31:16.689Z,47.60
2018-06-11T09:33:45.465Z,47.61
2018-06-11T09:36:14.287Z,48.39
2018-06-11T09:38:43.099Z,48.34
2018-06-11T09:41:12.042Z,46.97
2018-06-11T09:43:42.063Z,47.91
2018-06-11T09:46:10.999Z,47.19
2018-06-11T09:48:39.993Z,46.75
2018-06-11T09:51:08.931Z,46.96
2018-06-11T09:53:38.037Z,45.55
2018-06-11T09:56:07.154Z,44.98
2018-06-11T09:58:35.987Z,45.25
2018-06-11T10:01:05.775Z,45.19
2018-06-11T10:03:34.790Z,44.69
2018-06-11T10:06:04.601Z,45.45
2018-06-11T10:08:34.275Z,44.48
2018-06-11T10:11:03.028Z,44.78
2018-06-11T10:13:31.884Z,43.94
2018-06-11T10:16:01.374Z,44.66
2018-06-11T10:18:31.385Z,43.80
2018-06-11T10:21:00.186Z,43.27
2018-06-11T10:23:28.985Z,44.42
2018-06-11T10:25:58.767Z,43.90
2018-06-11T10:28:27.575Z,43.29
2018-06-11T10:30:56.972Z,43.72
2018-06-11T10:33:25.823Z,43.69
2018-06-11T10:35:54.834Z,44.88
2018-06-11T10:38:23.773Z,45.81
2018-06-11T10:40:52.561Z,46.08
2018-06-11T10:43:21.913Z,44.11
2018-06-11T10:45:50.801Z,44.19
2018-06-11T10:48:19.578Z,43.95
2018-06-11T10:50:48.383Z,43.98
2018-06-11T10:53:17.154Z,43.67
2018-06-11T10:55:46.159Z,43.14
2018-06-11T10:58:15.186Z,43.92
2018-06-11T11:00:44.866Z,44.10
2018-06-11T11:03:13.653Z,44.61
2018-06-11T11:05:43.587Z,43.98
2018-06-11T11:08:13.059Z,43.28
2018-06-11T11:10:42.004Z,43.53
2018-06-11T11:13:10.911Z,42.62
2018-06-11T11:15:40.720Z,42.63
2018-06-11T11:18:10.460Z,42.65
2018-06-11T11:20:39.451Z,39.82
2018-06-11T11:23:09.264Z,40.76
2018-06-11T11:25:38.517Z,40.78
2018-06-11T11:28:07.322Z,40.23
2018-06-11T11:30:36.847Z,40.42
2018-06-11T11:33:05.709Z,40.93
2018-06-11T11:35:34.515Z,41.17
2018-06-11T11:38:03.355Z,42.06
2018-06-11T11:40:32.451Z,41.62
2018-06-11T11:43:01.931Z,41.30
2018-06-11T11:45:30.802Z,40.02
2018-06-11T11:47:59.615Z,41.98
2018-06-11T11:50:28.423Z,41.35
2018-06-11T11:52:57.239Z,40.50
2018-06-11T11:55:26.456Z,40.20
2018-06-11T11:57:55.472Z,39.72
2018-06-11T12:00:25.227Z,38.75
2018-06-11T12:02:54.209Z,38.56
2018-06-11T12:05:23.815Z,38.25
2018-06-11T12:07:53.576Z,38.14
2018-06-11T12:10:22.533Z,37.73
2018-06-11T12:12:51.327Z,36.17
2018-06-11T12:15:21.239Z,36.41
2018-06-11T12:17:50.593Z,37.48
2018-06-11T12:20:19.407Z,35.77
2018-06-11T12:22:48.951Z,35.51
2018-06-11T12:25:17.750Z,34.79
2018-06-11T12:27:46.597Z,35.46
2018-06-11T12:30:16.290Z,36.93
2018-06-11T12:32:45.080Z,36.35
2018-06-11T12:35:13.838Z,36.32
2018-06-11T12:37:42.669Z,36.48
2018-06-11T12:40:11.789Z,38.13
2018-06-11T12:42:41.694Z,36.44
2018-06-11T12:45:10.982Z,36.85
2018-06-11T12:47:40.083Z,37.10
2018-06-11T12:50:09.162Z,35.95
2018-06-11T12:52:39.074Z,36.02
2018-06-11T12:55:08.176Z,38.38
2018-06-11T12:57:37.031Z,37.80
2018-06-11T13:00:07.022Z,39.00
2018-06-11T13:02:35.790Z,38.89
2018-06-11T13:05:05.807Z,39.61
2018-06-11T13:07:35.336Z,41.75
2018-06-11T13:10:04.496Z,43.22
2018-06-11T13:12:33.338Z,43.88
2018-06-11T13:15:03.119Z,44.86
2018-06-11T13:17:32.571Z,46.50
2018-06-11T13:20:02.585Z,47.22
2018-06-11T13:22:31.373Z,47.95
2018-06-11T13:25:00.154Z,48.99
2018-06-11T13:27:28.955Z,49.54
2018-06-11T13:29:59.423Z,50.98
2018-06-11T13:32:28.226Z,51.99
2018-06-11T13:34:57.037Z,50.78
2018-06-11T13:37:25.854Z,51.61
2018-06-11T13:39:54.779Z,51.50
2018-06-11T13:42:24.353Z,51.40
2018-06-11T13:44:54.176Z,53.38
2018-06-11T13:47:23.275Z,56.10
2018-06-11T13:49:52.433Z,58.58
2018-06-11T13:52:21.261Z,61.71
2018-06-11T13:54:50.170Z,62.08
2018-06-11T13:57:19.115Z,64.00
2018-06-11T13:59:49.078Z,66.18
2018-06-11T14:02:17.900Z,66.08
2018-06-11T14:04:46.659Z,67.80
2018-06-11T14:07:16.192Z,68.26
2018-06-11T14:09:45.052Z,67.94
2018-06-11T14:12:13.906Z,67.02
2018-06-11T14:14:42.721Z,67.22
2018-06-11T14:17:12.394Z,65.62
2018-06-11T14:19:41.269Z,67.72
2018-06-11T14:22:10.296Z,67.38
2018-06-11T14:24:39.465Z,66.95
2018-06-11T14:27:08.362Z,67.65
2018-06-11T14:29:37.389Z,66.69
2018-06-11T14:32:07.494Z,67.26
2018-06-11T14:34:36.267Z,66.89
2018-06-11T14:37:05.052Z,67.47
2018-06-11T14:39:33.858Z,67.34
2018-06-11T14:42:03.772Z,69.55
2018-06-11T14:44:33.306Z,69.72
2018-06-11T14:47:02.437Z,69.98
2018-06-11T14:49:31.211Z,70.25
2018-06-11T14:52:00.082Z,70.98
2018-06-11T14:54:28.859Z,71.88
2018-06-11T14:56:57.775Z,72.43
2018-06-11T14:59:27.377Z,70.77
2018-06-11T15:01:56.171Z,71.26
2018-06-11T15:04:25.055Z,70.79
2018-06-11T15:06:54.638Z,71.33
2018-06-11T15:09:23.503Z,70.23
2018-06-11T15:11:52.747Z,70.56
2018-06-11T15:14:22.227Z,72.02
2018-06-11T15:16:52.891Z,71.14
2018-06-11T15:19:21.655Z,71.56
2018-06-11T15:21:50.459Z,70.95
2018-06-11T15:24:19.282Z,72.22
2018-06-11T15:26:48.022Z,71.70
2018-06-11T15:29:16.971Z,71.82
2018-06-11T15:31:46.550Z,72.45
2018-06-11T15:34:15.292Z,71.56
2018-06-11T15:36:44.415Z,71.35
2018-06-11T15:39:13.219Z,70.25
2018-06-11T15:41:42.154Z,70.31
2018-06-11T15:44:11.700Z,70.09
2018-06-11T15:46:41.259Z,68.21
2018-06-11T15:49:10.380Z,68.50
2018-06-11T15:51:39.490Z,68.87
2018-06-11T15:54:08.435Z,67.90
2018-06-11T15:56:37.894Z,66.20
2018-06-11T15:59:07.262Z,66.53
2018-06-11T16:01:36.078Z,65.20
2018-06-11T16:04:04.951Z,65.96
2018-06-11T16:06:34.590Z,66.88
2018-06-11T16:09:03.581Z,65.39
2018-06-11T16:11:33.108Z,66.48
2018-06-11T16:14:01.890Z,66.61
2018-06-11T16:16:31.609Z,66.00
2018-06-11T16:19:00.950Z,67.31
2018-06-11T16:21:29.766Z,66.55
2018-06-11T16:23:58.973Z,68.01
2018-06-11T16:26:28.424Z,67.87
2018-06-11T16:28:57.205Z,68.12
2018-06-11T16:31:26.808Z,67.70
2018-06-11T16:33:55.741Z,67.56
2018-06-11T16:36:24.670Z,66.50
2018-06-11T16:38:53.987Z,66.93
2018-06-11T16:41:22.935Z,66.35
2018-06-11T16:43:52.403Z,67.37
2018-06-11T16:46:21.255Z,68.62
2018-06-11T16:48:51.069Z,68.00
2018-06-11T16:51:19.868Z,67.55
2018-06-11T16:53:48.681Z,67.68
2018-06-11T16:56:17.566Z,67.70
2018-06-11T16:58:47.577Z,68.29
2018-06-11T17:01:16.323Z,67.88
2018-06-11T17:03:45.897Z,67.50
2018-06-11T17:06:15.283Z,67.60
2018-06-11T17:08:44.839Z,68.26
2018-06-11T17:11:13.612Z,66.95
2018-06-11T17:13:42.506Z,67.28
2018-06-11T17:16:12.155Z,66.77
2018-06-11T17:18:42.896Z,67.53
2018-06-11T17:21:11.825Z,68.37
2018-06-11T17:23:40.742Z,68.19
2018-06-11T17:26:10.388Z,68.68
2018-06-11T17:28:39.322Z,68.70
2018-06-11T17:31:09.347Z,67.78
2018-06-11T17:33:38.311Z,67.39
2018-06-11T17:36:08.341Z,67.45
2018-06-11T17:38:37.218Z,68.01
2018-06-11T17:41:06.050Z,67.17
2018-06-11T17:43:35.571Z,67.91
2018-06-11T17:46:04.354Z,67.54
2018-06-11T17:48:33.193Z,66.74
2018-06-11T17:51:02.045Z,67.64
2018-06-11T17:53:31.227Z,67.63
2018-06-11T17:56:00.122Z,67.54
2018-06-11T17:58:29.223Z,68.29
2018-06-11T18:00:58.925Z,67.64
2018-06-11T18:03:28.556Z,67.21
2018-06-11T18:05:58.122Z,67.89
2018-06-11T18:08:28.407Z,68.50
2018-06-11T18:10:57.400Z,68.52
2018-06-11T18:13:27.127Z,68.76
2018-06-11T18:15:56.790Z,68.70
2018-06-11T18:18:29.214Z,69.26
2018-06-11T18:20:58.320Z,69.17
2018-06-11T18:23:27.136Z,68.40
2018-06-11T18:25:57.903Z,68.62
2018-06-11T18:28:26.713Z,68.88
2018-06-11T18:30:56.716Z,69.32
2018-06-11T18:33:25.583Z,69.25
2018-06-11T18:35:55.445Z,69.74
2018-06-11T18:38:24.393Z,69.18
2018-06-11T18:40:53.884Z,69.42
2018-06-11T18:43:23.733Z,70.05
2018-06-11T18:45:52.520Z,69.41
2018-06-11T18:48:21.303Z,69.42
2018-06-11T18:50:50.839Z,69.99
2018-06-11T18:53:50.300Z,70.61
2018-06-11T18:56:20.204Z,70.10
2018-06-11T18:58:50.035Z,70.57
2018-06-11T19:01:19.687Z,70.51
2018-06-11T19:03:48.890Z,70.91
2018-06-11T19:06:18.475Z,71.04
2018-06-11T19:08:47.829Z,72.18
2018-06-11T19:11:16.909Z,71.88
2018-06-11T19:13:45.655Z,71.49
2018-06-11T19:16:15.153Z,72.21
2018-06-11T19:18:44.601Z,72.51
2018-06-11T19:21:13.846Z,72.06
2018-06-11T19:23:42.680Z,71.91
2018-06-11T19:26:11.736Z,73.16
2018-06-11T19:28:40.656Z,73.05
2018-06-11T19:31:11.392Z,73.48
2018-06-11T19:34:43.532Z,73.52
2018-06-11T19:37:12.476Z,74.09
2018-06-11T19:39:41.490Z,74.80
2018-06-11T19:42:11.003Z,74.19
2018-06-11T19:44:40.020Z,74.29
2018-06-11T19:47:09.039Z,75.55
2018-06-11T19:49:38.486Z,75.92
2018-06-11T19:52:07.254Z,75.22
2018-06-11T19:54:36.160Z,74.84
2018-06-11T19:57:04.982Z,75.52
2018-06-11T19:59:34.643Z,75.52
2018-06-11T20:02:04.306Z,76.44
2018-06-11T20:04:34.028Z,77.34
2018-06-11T20:07:03.437Z,76.88
2018-06-11T20:09:32.334Z,78.06
2018-06-11T20:12:01.191Z,77.72
2018-06-11T20:14:30.026Z,78.91
2018-06-11T20:16:59.769Z,79.25
2018-06-11T20:19:28.601Z,78.76
2018-06-11T20:21:57.386Z,79.21
2018-06-11T20:24:26.978Z,79.88
2018-06-11T20:26:55.868Z,79.21
2018-06-11T20:29:24.938Z,79.91
2018-06-11T20:31:54.576Z,79.37
2018-06-11T20:34:24.624Z,79.92
2018-06-11T20:36:53.613Z,79.34
2018-06-11T20:39:22.552Z,79.86
2018-06-11T20:41:53.528Z,80.14
2018-06-11T20:44:22.610Z,79.16
2018-06-11T20:46:51.555Z,78.92
2018-06-11T20:49:20.396Z,79.70
2018-06-11T20:51:49.255Z,79.07
2018-06-11T20:54:18.209Z,79.36
2018-06-11T20:56:48.045Z,79.10
2018-06-11T20:59:17.543Z,79.54
2018-06-11T21:01:47.230Z,78.69
2018-06-11T21:04:16.760Z,79.47
2018-06-11T21:06:46.498Z,78.83
2018-06-11T21:09:15.367Z,78.98
2018-06-11T21:11:44.235Z,79.27
2018-06-11T21:14:15.015Z,78.52
2018-06-11T21:16:44.781Z,78.38
2018-06-11T21:19:13.615Z,79.01
2018-06-11T21:21:42.479Z,78.52
2018-06-11T21:24:11.692Z,79.09
2018-06-11T21:26:40.900Z,78.83
2018-06-11T21:29:12.105Z,79.58
2018-06-11T21:31:42.222Z,79.83
2018-06-11T21:34:11.441Z,79.94
2018-06-11T21:36:41.742Z,79.86
2018-06-11T21:39:11.005Z,80.70
2018-06-11T21:41:40.855Z,79.95
2018-06-11T21:44:10.507Z,80.95
2018-06-11T21:46:39.653Z,80.75
2018-06-11T21:49:09.062Z,80.38
2018-06-11T21:51:38.626Z,80.24
2018-06-11T21:54:07.691Z,80.74
2018-06-11T21:56:36.905Z,80.20
2018-06-11T21:59:06.627Z,80.78
2018-06-11T22:01:36.038Z,80.39
2018-06-11T22:04:05.644Z,81.18
2018-06-11T22:06:35.346Z,81.03
2018-06-11T22:09:06.633Z,81.11
2018-06-11T22:11:35.570Z,80.59
2018-06-11T22:14:04.500Z,80.80
2018-06-11T22:16:34.578Z,80.58
2018-06-11T22:19:04.207Z,80.58
2018-06-11T22:21:33.661Z,81.31
2018-06-11T22:24:02.503Z,81.52
2018-06-11T22:26:31.574Z,81.02
2018-06-11T22:29:00.476Z,81.87
2018-06-11T22:31:30.042Z,82.07
2018-06-11T22:33:58.905Z,81.48
2018-06-11T22:36:28.694Z,82.02
2018-06-11T22:38:57.693Z,82.22
2018-06-11T22:41:27.383Z,82.03
2018-06-11T22:43:56.431Z,82.75
2018-06-11T22:46:25.528Z,82.79
2018-06-11T22:48:54.523Z,82.72
2018-06-11T22:51:23.445Z,83.02
2018-06-11T22:53:52.463Z,83.12
2018-06-11T22:56:22.141Z,83.03
2018-06-11T22:58:52.081Z,83.26
2018-06-11T23:01:20.954Z,83.45
2018-06-11T23:03:51.010Z,82.90
2018-06-11T23:06:20.504Z,83.51
2018-06-11T23:08:49.930Z,83.11
2018-06-11T23:11:18.836Z,82.99
2018-06-11T23:13:47.766Z,83.57
2018-06-11T23:16:17.612Z,83.42
2018-06-11T23:18:47.436Z,82.89
2018-06-11T23:21:16.251Z,83.22
2018-06-11T23:23:45.165Z,83.26
2018-06-11T23:26:14.095Z,83.45
2018-06-11T23:28:42.987Z,83.59
2018-06-11T23:31:13.100Z,83.87
2018-06-11T23:33:42.203Z,84.21
2018-06-11T23:36:11.889Z,83.92
2018-06-11T23:38:41.256Z,84.20
2018-06-11T23:41:11.004Z,83.79
2018-06-11T23:43:40.072Z,83.31
2018-06-11T23:46:09.372Z,83.14
2018-06-11T23:48:38.508Z,83.58
2018-06-11T23:51:07.480Z,83.88
2018-06-11T23:53:37.393Z,83.45
2018-06-11T23:56:06.362Z,84.01
2018-06-11T23:58:35.246Z,84.08
